sensor_id;sensor_type;location;lat;lon;timestamp;temperature;humidity
23869;DHT22;12115;47.128;15.422;2024-02-14T00:00:39;2.20;99.90
23869;DHT22;12115;47.128;15.422;2024-02-14T00:03:07;2.20;99.90
23869;DHT22;12115;47.128;15.422;2024-02-14T00:05:33;2.10;99.90
23869;DHT22;12115;47.128;15.422;2024-02-14T00:07:59;2.10;99.90
23869;DHT22;12115;47.128;15.422;2024-02-14T00:10:25;2.10;99.90
23869;DHT22;12115;47.128;15.422;2024-02-14T00:12:51;2.10;99.90
23869;DHT22;12115;47.128;15.422;2024-02-14T00:15:18;2.10;99.90
23869;DHT22;12115;47.128;15.422;2024-02-14T00:17:44;2.00;99.90
23869;DHT22;12115;47.128;15.422;2024-02-14T00:20:10;2.00;99.90
23869;DHT22;12115;47.128;15.422;2024-02-14T00:22:38;2.00;99.90
23869;DHT22;12115;47.128;15.422;2024-02-14T00:25:05;1.90;99.90
23869;DHT22;12115;47.128;15.422;2024-02-14T00:27:31;1.90;99.90
23869;DHT22;12115;47.128;15.422;2024-02-14T00:29:57;1.90;99.90
23869;DHT22;12115;47.128;15.422;2024-02-14T00:32:23;1.90;99.90
23869;DHT22;12115;47.128;15.422;2024-02-14T00:34:49;1.80;99.90
23869;DHT22;12115;47.128;15.422;2024-02-14T00:37:16;1.80;99.90
23869;DHT22;12115;47.128;15.422;2024-02-14T00:39:42;1.70;99.90
23869;DHT22;12115;47.128;15.422;2024-02-14T00:42:08;1.70;99.90
23869;DHT22;12115;47.128;15.422;2024-02-14T00:44:34;1.70;99.90
23869;DHT22;12115;47.128;15.422;2024-02-14T00:47:00;1.70;99.90
23869;DHT22;12115;47.128;15.422;2024-02-14T00:49:28;1.70;99.90
23869;DHT22;12115;47.128;15.422;2024-02-14T00:51:54;1.70;99.90
23869;DHT22;12115;47.128;15.422;2024-02-14T00:54:21;1.60;99.90
23869;DHT22;12115;47.128;15.422;2024-02-14T00:56:47;1.60;99.90
23869;DHT22;12115;47.128;15.422;2024-02-14T00:59:13;1.50;99.90
23869;DHT22;12115;47.128;15.422;2024-02-14T01:01:39;1.50;99.90
23869;DHT22;12115;47.128;15.422;2024-02-14T01:04:05;1.50;99.90
23869;DHT22;12115;47.128;15.422;2024-02-14T01:06:31;1.50;99.90
23869;DHT22;12115;47.128;15.422;2024-02-14T01:08:58;1.50;99.90
23869;DHT22;12115;47.128;15.422;2024-02-14T01:11:24;1.50;99.90
23869;DHT22;12115;47.128;15.422;2024-02-14T01:13:50;1.50;99.90
23869;DHT22;12115;47.128;15.422;2024-02-14T01:16:17;1.40;99.90
23869;DHT22;12115;47.128;15.422;2024-02-14T01:18:44;1.40;99.90
23869;DHT22;12115;47.128;15.422;2024-02-14T01:21:10;1.40;99.90
23869;DHT22;12115;47.128;15.422;2024-02-14T01:23:36;1.40;99.90
23869;DHT22;12115;47.128;15.422;2024-02-14T01:26:02;1.30;99.90
23869;DHT22;12115;47.128;15.422;2024-02-14T01:28:29;1.30;99.90
23869;DHT22;12115;47.128;15.422;2024-02-14T01:30:55;1.30;99.90
23869;DHT22;12115;47.128;15.422;2024-02-14T01:33:23;1.20;99.90
23869;DHT22;12115;47.128;15.422;2024-02-14T01:35:49;1.20;99.90
23869;DHT22;12115;47.128;15.422;2024-02-14T01:38:15;1.20;99.90
23869;DHT22;12115;47.128;15.422;2024-02-14T01:40:44;1.20;99.90
23869;DHT22;12115;47.128;15.422;2024-02-14T01:43:11;1.20;99.90
23869;DHT22;12115;47.128;15.422;2024-02-14T01:45:37;1.10;99.90
23869;DHT22;12115;47.128;15.422;2024-02-14T01:48:03;1.10;99.90
23869;DHT22;12115;47.128;15.422;2024-02-14T01:50:32;1.10;99.90
23869;DHT22;12115;47.128;15.422;2024-02-14T01:52:58;1.10;99.90
23869;DHT22;12115;47.128;15.422;2024-02-14T01:55:28;1.00;99.90
23869;DHT22;12115;47.128;15.422;2024-02-14T01:57:55;1.00;99.90
23869;DHT22;12115;47.128;15.422;2024-02-14T02:00:21;1.00;99.90
23869;DHT22;12115;47.128;15.422;2024-02-14T02:02:47;1.00;99.90
23869;DHT22;12115;47.128;15.422;2024-02-14T02:05:18;1.00;99.90
23869;DHT22;12115;47.128;15.422;2024-02-14T02:07:44;1.00;99.90
23869;DHT22;12115;47.128;15.422;2024-02-14T02:10:14;0.80;99.90
23869;DHT22;12115;47.128;15.422;2024-02-14T02:12:40;0.80;99.90
23869;DHT22;12115;47.128;15.422;2024-02-14T02:15:07;0.80;99.90
23869;DHT22;12115;47.128;15.422;2024-02-14T02:17:37;0.80;99.90
23869;DHT22;12115;47.128;15.422;2024-02-14T02:20:03;0.80;99.90
23869;DHT22;12115;47.128;15.422;2024-02-14T02:22:31;0.80;99.90
23869;DHT22;12115;47.128;15.422;2024-02-14T02:25:04;0.80;99.90
23869;DHT22;12115;47.128;15.422;2024-02-14T02:27:33;0.70;99.90
23869;DHT22;12115;47.128;15.422;2024-02-14T02:30:06;0.70;99.90
23869;DHT22;12115;47.128;15.422;2024-02-14T02:32:33;0.70;99.90
23869;DHT22;12115;47.128;15.422;2024-02-14T02:34:59;0.60;99.90
23869;DHT22;12115;47.128;15.422;2024-02-14T02:37:27;0.60;99.90
23869;DHT22;12115;47.128;15.422;2024-02-14T02:39:58;0.60;99.90
23869;DHT22;12115;47.128;15.422;2024-02-14T02:42:24;0.60;99.90
23869;DHT22;12115;47.128;15.422;2024-02-14T02:44:51;0.60;99.90
23869;DHT22;12115;47.128;15.422;2024-02-14T02:47:17;0.60;99.90
23869;DHT22;12115;47.128;15.422;2024-02-14T02:49:43;0.50;99.90
23869;DHT22;12115;47.128;15.422;2024-02-14T02:52:10;0.60;99.90
23869;DHT22;12115;47.128;15.422;2024-02-14T02:54:36;0.60;99.90
23869;DHT22;12115;47.128;15.422;2024-02-14T02:57:03;0.50;99.90
23869;DHT22;12115;47.128;15.422;2024-02-14T02:59:29;0.50;99.90
23869;DHT22;12115;47.128;15.422;2024-02-14T03:01:55;0.50;99.90
23869;DHT22;12115;47.128;15.422;2024-02-14T03:04:23;0.40;99.90
23869;DHT22;12115;47.128;15.422;2024-02-14T03:07:03;0.40;99.90
23869;DHT22;12115;47.128;15.422;2024-02-14T03:09:32;0.40;99.90
23869;DHT22;12115;47.128;15.422;2024-02-14T03:11:58;0.40;99.90
23869;DHT22;12115;47.128;15.422;2024-02-14T03:14:24;0.40;99.90
23869;DHT22;12115;47.128;15.422;2024-02-14T03:16:51;0.40;99.90
23869;DHT22;12115;47.128;15.422;2024-02-14T03:19:17;0.40;99.90
23869;DHT22;12115;47.128;15.422;2024-02-14T03:21:43;0.30;99.90
23869;DHT22;12115;47.128;15.422;2024-02-14T03:24:12;0.30;99.90
23869;DHT22;12115;47.128;15.422;2024-02-14T03:26:38;0.30;99.90
23869;DHT22;12115;47.128;15.422;2024-02-14T03:29:05;0.30;99.90
23869;DHT22;12115;47.128;15.422;2024-02-14T03:31:32;0.20;99.90
23869;DHT22;12115;47.128;15.422;2024-02-14T03:33:58;0.20;99.90
23869;DHT22;12115;47.128;15.422;2024-02-14T03:36:25;0.20;99.90
23869;DHT22;12115;47.128;15.422;2024-02-14T03:38:54;0.20;99.90
23869;DHT22;12115;47.128;15.422;2024-02-14T03:41:20;0.20;99.90
23869;DHT22;12115;47.128;15.422;2024-02-14T03:43:46;0.20;99.90
23869;DHT22;12115;47.128;15.422;2024-02-14T03:46:12;0.20;99.90
23869;DHT22;12115;47.128;15.422;2024-02-14T03:48:39;0.20;99.90
23869;DHT22;12115;47.128;15.422;2024-02-14T03:51:07;0.10;99.90
23869;DHT22;12115;47.128;15.422;2024-02-14T03:53:34;0.10;99.90
23869;DHT22;12115;47.128;15.422;2024-02-14T03:56:00;0.10;99.90
23869;DHT22;12115;47.128;15.422;2024-02-14T03:58:27;0.10;99.90
23869;DHT22;12115;47.128;15.422;2024-02-14T04:00:53;0.10;99.90
23869;DHT22;12115;47.128;15.422;2024-02-14T04:03:19;0.10;99.90
23869;DHT22;12115;47.128;15.422;2024-02-14T04:05:45;0.10;99.90
23869;DHT22;12115;47.128;15.422;2024-02-14T04:08:12;0.10;99.90
23869;DHT22;12115;47.128;15.422;2024-02-14T04:10:39;0.10;99.90
23869;DHT22;12115;47.128;15.422;2024-02-14T04:13:05;0.10;99.90
23869;DHT22;12115;47.128;15.422;2024-02-14T04:15:31;0.00;99.90
23869;DHT22;12115;47.128;15.422;2024-02-14T04:17:58;0.00;99.90
23869;DHT22;12115;47.128;15.422;2024-02-14T04:20:25;0.00;99.90
23869;DHT22;12115;47.128;15.422;2024-02-14T04:22:51;0.00;99.90
23869;DHT22;12115;47.128;15.422;2024-02-14T04:25:18;0.00;99.90
23869;DHT22;12115;47.128;15.422;2024-02-14T04:27:44;-0.10;99.90
23869;DHT22;12115;47.128;15.422;2024-02-14T04:30:10;-0.10;99.90
23869;DHT22;12115;47.128;15.422;2024-02-14T04:32:37;-0.10;99.90
23869;DHT22;12115;47.128;15.422;2024-02-14T04:35:03;-0.10;99.90
23869;DHT22;12115;47.128;15.422;2024-02-14T04:37:29;-0.10;99.90
23869;DHT22;12115;47.128;15.422;2024-02-14T04:39:56;-0.10;99.90
23869;DHT22;12115;47.128;15.422;2024-02-14T04:42:22;-0.10;99.90
23869;DHT22;12115;47.128;15.422;2024-02-14T04:44:48;-0.20;99.90
23869;DHT22;12115;47.128;15.422;2024-02-14T04:47:15;-0.20;99.90
23869;DHT22;12115;47.128;15.422;2024-02-14T04:49:41;-0.10;99.90
23869;DHT22;12115;47.128;15.422;2024-02-14T04:52:07;-0.20;99.90
23869;DHT22;12115;47.128;15.422;2024-02-14T04:54:34;-0.20;99.90
23869;DHT22;12115;47.128;15.422;2024-02-14T04:57:00;-0.20;99.90
23869;DHT22;12115;47.128;15.422;2024-02-14T04:59:29;-0.20;99.90
23869;DHT22;12115;47.128;15.422;2024-02-14T05:01:55;-0.20;99.90
23869;DHT22;12115;47.128;15.422;2024-02-14T05:04:22;-0.20;99.90
23869;DHT22;12115;47.128;15.422;2024-02-14T05:06:48;-0.20;99.90
23869;DHT22;12115;47.128;15.422;2024-02-14T05:09:16;-0.20;99.90
23869;DHT22;12115;47.128;15.422;2024-02-14T05:11:42;-0.20;99.90
23869;DHT22;12115;47.128;15.422;2024-02-14T05:14:08;-0.20;99.90
23869;DHT22;12115;47.128;15.422;2024-02-14T05:16:34;-0.20;99.90
23869;DHT22;12115;47.128;15.422;2024-02-14T05:19:01;-0.20;99.90
23869;DHT22;12115;47.128;15.422;2024-02-14T05:21:28;-0.20;99.90
23869;DHT22;12115;47.128;15.422;2024-02-14T05:23:54;-0.30;99.90
23869;DHT22;12115;47.128;15.422;2024-02-14T05:26:20;-0.30;99.90
23869;DHT22;12115;47.128;15.422;2024-02-14T05:28:46;-0.30;99.90
23869;DHT22;12115;47.128;15.422;2024-02-14T05:31:12;-0.30;99.90
23869;DHT22;12115;47.128;15.422;2024-02-14T05:33:38;-0.30;99.90
23869;DHT22;12115;47.128;15.422;2024-02-14T05:36:05;-0.30;99.90
23869;DHT22;12115;47.128;15.422;2024-02-14T05:38:31;-0.30;99.90
23869;DHT22;12115;47.128;15.422;2024-02-14T05:40:59;-0.30;99.90
23869;DHT22;12115;47.128;15.422;2024-02-14T05:43:26;-0.30;99.90
23869;DHT22;12115;47.128;15.422;2024-02-14T05:45:52;-0.30;99.90
23869;DHT22;12115;47.128;15.422;2024-02-14T05:48:19;-0.40;99.90
23869;DHT22;12115;47.128;15.422;2024-02-14T05:50:45;-0.40;99.90
23869;DHT22;12115;47.128;15.422;2024-02-14T05:53:11;-0.40;99.90
23869;DHT22;12115;47.128;15.422;2024-02-14T05:55:38;-0.40;99.90
23869;DHT22;12115;47.128;15.422;2024-02-14T05:58:04;-0.40;99.90
23869;DHT22;12115;47.128;15.422;2024-02-14T06:00:30;-0.50;99.90
23869;DHT22;12115;47.128;15.422;2024-02-14T06:02:56;-0.50;99.90
23869;DHT22;12115;47.128;15.422;2024-02-14T06:05:23;-0.50;99.90
23869;DHT22;12115;47.128;15.422;2024-02-14T06:07:49;-0.50;99.90
23869;DHT22;12115;47.128;15.422;2024-02-14T06:10:16;-0.50;99.90
23869;DHT22;12115;47.128;15.422;2024-02-14T06:12:43;-0.50;99.90
23869;DHT22;12115;47.128;15.422;2024-02-14T06:15:10;-0.50;99.90
23869;DHT22;12115;47.128;15.422;2024-02-14T06:17:36;-0.50;99.90
23869;DHT22;12115;47.128;15.422;2024-02-14T06:20:03;-0.50;99.90
23869;DHT22;12115;47.128;15.422;2024-02-14T06:22:33;-0.50;99.90
23869;DHT22;12115;47.128;15.422;2024-02-14T06:24:59;-0.50;99.90
23869;DHT22;12115;47.128;15.422;2024-02-14T06:27:26;-0.50;99.90
23869;DHT22;12115;47.128;15.422;2024-02-14T06:29:53;-0.50;99.90
23869;DHT22;12115;47.128;15.422;2024-02-14T06:32:20;-0.50;99.90
23869;DHT22;12115;47.128;15.422;2024-02-14T06:34:46;-0.50;99.90
23869;DHT22;12115;47.128;15.422;2024-02-14T06:37:13;-0.50;99.90
23869;DHT22;12115;47.128;15.422;2024-02-14T06:39:39;-0.50;99.90
23869;DHT22;12115;47.128;15.422;2024-02-14T06:42:06;-0.50;99.90
23869;DHT22;12115;47.128;15.422;2024-02-14T06:44:32;-0.40;99.90
23869;DHT22;12115;47.128;15.422;2024-02-14T06:47:01;-0.40;99.90
23869;DHT22;12115;47.128;15.422;2024-02-14T06:49:27;-0.30;99.90
23869;DHT22;12115;47.128;15.422;2024-02-14T06:51:54;-0.30;99.90
23869;DHT22;12115;47.128;15.422;2024-02-14T06:54:20;-0.20;99.90
23869;DHT22;12115;47.128;15.422;2024-02-14T06:56:46;-0.10;99.90
23869;DHT22;12115;47.128;15.422;2024-02-14T06:59:12;0.00;99.90
23869;DHT22;12115;47.128;15.422;2024-02-14T07:01:38;0.20;99.90
23869;DHT22;12115;47.128;15.422;2024-02-14T07:04:04;0.30;99.90
23869;DHT22;12115;47.128;15.422;2024-02-14T07:06:31;0.40;99.90
23869;DHT22;12115;47.128;15.422;2024-02-14T07:08:57;0.60;99.90
23869;DHT22;12115;47.128;15.422;2024-02-14T07:11:23;0.90;99.90
23869;DHT22;12115;47.128;15.422;2024-02-14T07:13:50;1.20;99.90
23869;DHT22;12115;47.128;15.422;2024-02-14T07:16:16;1.50;99.90
23869;DHT22;12115;47.128;15.422;2024-02-14T07:18:42;1.90;99.90
23869;DHT22;12115;47.128;15.422;2024-02-14T07:21:08;2.30;99.90
23869;DHT22;12115;47.128;15.422;2024-02-14T07:23:35;2.60;99.90
23869;DHT22;12115;47.128;15.422;2024-02-14T07:26:01;3.10;99.90
23869;DHT22;12115;47.128;15.422;2024-02-14T07:28:30;3.40;99.90
23869;DHT22;12115;47.128;15.422;2024-02-14T07:30:56;3.80;99.90
23869;DHT22;12115;47.128;15.422;2024-02-14T07:33:22;4.20;99.90
23869;DHT22;12115;47.128;15.422;2024-02-14T07:35:50;4.50;99.90
23869;DHT22;12115;47.128;15.422;2024-02-14T07:38:16;4.80;99.90
23869;DHT22;12115;47.128;15.422;2024-02-14T07:40:42;5.10;99.90
23869;DHT22;12115;47.128;15.422;2024-02-14T07:43:08;5.30;99.90
23869;DHT22;12115;47.128;15.422;2024-02-14T07:45:34;5.60;99.90
23869;DHT22;12115;47.128;15.422;2024-02-14T07:48:01;6.00;99.90
23869;DHT22;12115;47.128;15.422;2024-02-14T07:50:29;6.30;99.90
23869;DHT22;12115;47.128;15.422;2024-02-14T07:52:55;6.70;99.90
23869;DHT22;12115;47.128;15.422;2024-02-14T07:55:21;7.10;99.90
23869;DHT22;12115;47.128;15.422;2024-02-14T07:57:48;7.50;99.90
23869;DHT22;12115;47.128;15.422;2024-02-14T08:00:14;7.50;99.90
23869;DHT22;12115;47.128;15.422;2024-02-14T08:02:45;7.50;99.90
23869;DHT22;12115;47.128;15.422;2024-02-14T08:05:11;7.40;99.90
23869;DHT22;12115;47.128;15.422;2024-02-14T08:07:37;7.50;99.90
23869;DHT22;12115;47.128;15.422;2024-02-14T08:10:03;7.80;99.90
23869;DHT22;12115;47.128;15.422;2024-02-14T08:12:30;8.10;99.90
23869;DHT22;12115;47.128;15.422;2024-02-14T08:14:57;8.30;99.90
23869;DHT22;12115;47.128;15.422;2024-02-14T08:17:23;8.30;99.90
23869;DHT22;12115;47.128;15.422;2024-02-14T08:19:49;8.50;99.90
23869;DHT22;12115;47.128;15.422;2024-02-14T08:22:16;8.70;99.90
23869;DHT22;12115;47.128;15.422;2024-02-14T08:24:42;8.90;99.90
23869;DHT22;12115;47.128;15.422;2024-02-14T08:27:08;9.20;99.90
23869;DHT22;12115;47.128;15.422;2024-02-14T08:29:35;9.50;99.90
23869;DHT22;12115;47.128;15.422;2024-02-14T08:32:01;9.80;99.90
23869;DHT22;12115;47.128;15.422;2024-02-14T08:34:28;10.20;99.90
23869;DHT22;12115;47.128;15.422;2024-02-14T08:36:55;10.90;99.90
23869;DHT22;12115;47.128;15.422;2024-02-14T08:39:21;11.40;99.90
23869;DHT22;12115;47.128;15.422;2024-02-14T08:41:47;11.60;98.90
23869;DHT22;12115;47.128;15.422;2024-02-14T08:44:13;11.90;98.80
23869;DHT22;12115;47.128;15.422;2024-02-14T08:46:40;12.20;99.60
23869;DHT22;12115;47.128;15.422;2024-02-14T08:49:08;12.30;97.90
23869;DHT22;12115;47.128;15.422;2024-02-14T08:51:38;12.40;97.90
23869;DHT22;12115;47.128;15.422;2024-02-14T08:54:05;12.50;97.90
23869;DHT22;12115;47.128;15.422;2024-02-14T08:56:32;12.50;97.60
23869;DHT22;12115;47.128;15.422;2024-02-14T08:59:03;12.70;97.30
23869;DHT22;12115;47.128;15.422;2024-02-14T09:01:30;13.10;96.70
23869;DHT22;12115;47.128;15.422;2024-02-14T09:03:56;13.40;96.00
23869;DHT22;12115;47.128;15.422;2024-02-14T09:06:23;13.90;95.30
23869;DHT22;12115;47.128;15.422;2024-02-14T09:08:50;13.80;93.30
23869;DHT22;12115;47.128;15.422;2024-02-14T09:11:22;13.80;93.40
23869;DHT22;12115;47.128;15.422;2024-02-14T09:13:49;14.10;93.60
23869;DHT22;12115;47.128;15.422;2024-02-14T09:16:17;14.40;92.80
23869;DHT22;12115;47.128;15.422;2024-02-14T09:18:45;14.70;92.70
23869;DHT22;12115;47.128;15.422;2024-02-14T09:21:12;15.40;92.60
23869;DHT22;12115;47.128;15.422;2024-02-14T09:23:42;15.60;91.00
23869;DHT22;12115;47.128;15.422;2024-02-14T09:26:08;15.80;91.60
23869;DHT22;12115;47.128;15.422;2024-02-14T09:28:34;16.10;90.90
23869;DHT22;12115;47.128;15.422;2024-02-14T09:31:01;16.40;90.50
23869;DHT22;12115;47.128;15.422;2024-02-14T09:33:29;16.70;88.40
23869;DHT22;12115;47.128;15.422;2024-02-14T09:35:56;16.30;87.50
23869;DHT22;12115;47.128;15.422;2024-02-14T09:38:22;16.20;87.90
23869;DHT22;12115;47.128;15.422;2024-02-14T09:40:52;16.50;86.80
23869;DHT22;12115;47.128;15.422;2024-02-14T09:43:34;16.90;86.90
23869;DHT22;12115;47.128;15.422;2024-02-14T09:46:02;17.00;84.00
23869;DHT22;12115;47.128;15.422;2024-02-14T09:48:30;16.90;84.60
23869;DHT22;12115;47.128;15.422;2024-02-14T09:50:57;17.10;84.80
23869;DHT22;12115;47.128;15.422;2024-02-14T09:53:24;17.30;84.40
23869;DHT22;12115;47.128;15.422;2024-02-14T09:55:50;17.50;83.10
23869;DHT22;12115;47.128;15.422;2024-02-14T09:58:17;17.50;79.90
23869;DHT22;12115;47.128;15.422;2024-02-14T10:00:43;18.00;82.10
23869;DHT22;12115;47.128;15.422;2024-02-14T10:03:10;18.70;78.80
23869;DHT22;12115;47.128;15.422;2024-02-14T10:05:37;18.60;78.10
23869;DHT22;12115;47.128;15.422;2024-02-14T10:08:04;19.00;75.30
23869;DHT22;12115;47.128;15.422;2024-02-14T10:10:32;19.30;76.80
23869;DHT22;12115;47.128;15.422;2024-02-14T10:13:04;19.50;73.10
23869;DHT22;12115;47.128;15.422;2024-02-14T10:15:31;19.60;73.40
23869;DHT22;12115;47.128;15.422;2024-02-14T10:17:59;19.70;72.50
23869;DHT22;12115;47.128;15.422;2024-02-14T10:20:26;19.50;70.40
23869;DHT22;12115;47.128;15.422;2024-02-14T10:23:00;19.30;71.60
23869;DHT22;12115;47.128;15.422;2024-02-14T10:25:27;19.30;68.10
23869;DHT22;12115;47.128;15.422;2024-02-14T10:27:54;19.90;67.30
23869;DHT22;12115;47.128;15.422;2024-02-14T10:30:20;20.40;65.20
23869;DHT22;12115;47.128;15.422;2024-02-14T10:32:47;20.70;64.80
23869;DHT22;12115;47.128;15.422;2024-02-14T10:35:15;21.00;63.80
23869;DHT22;12115;47.128;15.422;2024-02-14T10:37:44;21.30;60.80
23869;DHT22;12115;47.128;15.422;2024-02-14T10:40:11;21.40;57.50
23869;DHT22;12115;47.128;15.422;2024-02-14T10:42:37;21.10;58.00
23869;DHT22;12115;47.128;15.422;2024-02-14T10:45:04;20.50;55.90
23869;DHT22;12115;47.128;15.422;2024-02-14T10:47:34;20.80;56.60
23869;DHT22;12115;47.128;15.422;2024-02-14T10:50:03;21.20;56.10
23869;DHT22;12115;47.128;15.422;2024-02-14T10:52:36;21.70;54.70
23869;DHT22;12115;47.128;15.422;2024-02-14T10:55:04;21.40;54.30
23869;DHT22;12115;47.128;15.422;2024-02-14T10:57:31;21.50;54.30
23869;DHT22;12115;47.128;15.422;2024-02-14T11:00:08;21.80;54.40
23869;DHT22;12115;47.128;15.422;2024-02-14T11:02:40;21.60;52.10
23869;DHT22;12115;47.128;15.422;2024-02-14T11:05:14;21.70;53.20
23869;DHT22;12115;47.128;15.422;2024-02-14T11:07:47;21.80;51.90
23869;DHT22;12115;47.128;15.422;2024-02-14T11:10:16;22.40;52.20
23869;DHT22;12115;47.128;15.422;2024-02-14T11:12:43;22.90;53.30
23869;DHT22;12115;47.128;15.422;2024-02-14T11:15:17;22.60;50.00
23869;DHT22;12115;47.128;15.422;2024-02-14T11:17:45;22.30;49.90
23869;DHT22;12115;47.128;15.422;2024-02-14T11:20:30;22.30;50.50
23869;DHT22;12115;47.128;15.422;2024-02-14T11:23:01;22.00;50.20
23869;DHT22;12115;47.128;15.422;2024-02-14T11:25:30;21.30;49.40
23869;DHT22;12115;47.128;15.422;2024-02-14T11:28:16;20.70;50.80
23869;DHT22;12115;47.128;15.422;2024-02-14T11:30:43;20.30;51.60
23869;DHT22;12115;47.128;15.422;2024-02-14T11:33:13;19.40;50.80
23869;DHT22;12115;47.128;15.422;2024-02-14T11:35:41;18.90;52.00
23869;DHT22;12115;47.128;15.422;2024-02-14T11:38:08;18.90;52.00
23869;DHT22;12115;47.128;15.422;2024-02-14T11:40:38;19.10;52.00
23869;DHT22;12115;47.128;15.422;2024-02-14T11:43:13;19.20;53.00
23869;DHT22;12115;47.128;15.422;2024-02-14T11:45:41;18.90;51.30
23869;DHT22;12115;47.128;15.422;2024-02-14T11:48:09;18.70;51.20
23869;DHT22;12115;47.128;15.422;2024-02-14T11:50:39;18.20;51.20
23869;DHT22;12115;47.128;15.422;2024-02-14T11:53:06;18.00;52.50
23869;DHT22;12115;47.128;15.422;2024-02-14T11:55:36;17.80;53.20
23869;DHT22;12115;47.128;15.422;2024-02-14T11:58:09;17.60;53.20
23869;DHT22;12115;47.128;15.422;2024-02-14T12:03:18;16.60;53.80
23869;DHT22;12115;47.128;15.422;2024-02-14T12:05:47;16.30;53.70
23869;DHT22;12115;47.128;15.422;2024-02-14T12:08:14;16.30;54.10
23869;DHT22;12115;47.128;15.422;2024-02-14T12:10:44;16.00;54.00
23869;DHT22;12115;47.128;15.422;2024-02-14T12:13:15;15.90;53.50
23869;DHT22;12115;47.128;15.422;2024-02-14T12:15:45;15.50;54.70
23869;DHT22;12115;47.128;15.422;2024-02-14T12:18:12;15.40;54.60
23869;DHT22;12115;47.128;15.422;2024-02-14T12:20:40;15.30;55.00
23869;DHT22;12115;47.128;15.422;2024-02-14T12:23:07;15.40;56.20
23869;DHT22;12115;47.128;15.422;2024-02-14T12:25:33;15.20;55.80
23869;DHT22;12115;47.128;15.422;2024-02-14T12:27:59;15.10;56.60
23869;DHT22;12115;47.128;15.422;2024-02-14T12:31:00;14.90;56.10
23869;DHT22;12115;47.128;15.422;2024-02-14T12:33:22;14.70;55.90
23869;DHT22;12115;47.128;15.422;2024-02-14T12:35:50;14.40;56.10
23869;DHT22;12115;47.128;15.422;2024-02-14T12:38:18;14.30;56.70
23869;DHT22;12115;47.128;15.422;2024-02-14T12:40:44;14.30;56.80
23869;DHT22;12115;47.128;15.422;2024-02-14T12:43:11;14.20;58.10
23869;DHT22;12115;47.128;15.422;2024-02-14T12:45:38;14.30;58.00
23869;DHT22;12115;47.128;15.422;2024-02-14T12:48:07;14.20;57.60
23869;DHT22;12115;47.128;15.422;2024-02-14T12:50:36;14.00;57.60
23869;DHT22;12115;47.128;15.422;2024-02-14T12:53:09;13.90;57.50
23869;DHT22;12115;47.128;15.422;2024-02-14T12:55:36;13.80;58.40
23869;DHT22;12115;47.128;15.422;2024-02-14T12:58:02;13.80;57.80
23869;DHT22;12115;47.128;15.422;2024-02-14T13:00:29;13.70;58.10
23869;DHT22;12115;47.128;15.422;2024-02-14T13:02:57;13.60;58.50
23869;DHT22;12115;47.128;15.422;2024-02-14T13:05:24;13.60;58.90
23869;DHT22;12115;47.128;15.422;2024-02-14T13:07:51;13.50;59.20
23869;DHT22;12115;47.128;15.422;2024-02-14T13:10:17;13.40;59.10
23869;DHT22;12115;47.128;15.422;2024-02-14T13:12:44;13.30;58.60
23869;DHT22;12115;47.128;15.422;2024-02-14T13:15:11;13.20;58.50
23869;DHT22;12115;47.128;15.422;2024-02-14T13:17:37;13.20;58.50
23869;DHT22;12115;47.128;15.422;2024-02-14T13:20:04;13.10;57.10
23869;DHT22;12115;47.128;15.422;2024-02-14T13:22:30;13.10;57.30
23869;DHT22;12115;47.128;15.422;2024-02-14T13:24:58;13.10;58.00
23869;DHT22;12115;47.128;15.422;2024-02-14T13:27:26;13.00;57.60
23869;DHT22;12115;47.128;15.422;2024-02-14T13:29:52;13.10;57.70
23869;DHT22;12115;47.128;15.422;2024-02-14T13:32:19;13.00;57.50
23869;DHT22;12115;47.128;15.422;2024-02-14T13:34:45;13.00;58.20
23869;DHT22;12115;47.128;15.422;2024-02-14T13:37:11;13.00;57.80
23869;DHT22;12115;47.128;15.422;2024-02-14T13:39:39;13.00;57.90
23869;DHT22;12115;47.128;15.422;2024-02-14T13:42:05;13.00;58.00
23869;DHT22;12115;47.128;15.422;2024-02-14T13:44:33;13.00;58.20
23869;DHT22;12115;47.128;15.422;2024-02-14T13:46:59;12.90;58.20
23869;DHT22;12115;47.128;15.422;2024-02-14T13:49:26;12.80;58.20
23869;DHT22;12115;47.128;15.422;2024-02-14T13:51:54;12.70;58.30
23869;DHT22;12115;47.128;15.422;2024-02-14T13:54:23;12.70;58.30
23869;DHT22;12115;47.128;15.422;2024-02-14T13:56:50;12.80;58.70
23869;DHT22;12115;47.128;15.422;2024-02-14T13:59:16;12.80;58.40
23869;DHT22;12115;47.128;15.422;2024-02-14T14:01:42;12.70;57.90
23869;DHT22;12115;47.128;15.422;2024-02-14T14:04:09;12.70;57.50
23869;DHT22;12115;47.128;15.422;2024-02-14T14:06:35;12.60;57.90
23869;DHT22;12115;47.128;15.422;2024-02-14T14:09:01;12.60;58.00
23869;DHT22;12115;47.128;15.422;2024-02-14T14:11:31;12.70;58.40
23869;DHT22;12115;47.128;15.422;2024-02-14T14:13:58;12.60;58.20
23869;DHT22;12115;47.128;15.422;2024-02-14T14:16:24;12.50;58.00
23869;DHT22;12115;47.128;15.422;2024-02-14T14:18:50;12.40;58.10
23869;DHT22;12115;47.128;15.422;2024-02-14T14:21:19;12.40;58.40
23869;DHT22;12115;47.128;15.422;2024-02-14T14:23:45;12.40;58.80
23869;DHT22;12115;47.128;15.422;2024-02-14T14:26:13;12.40;58.60
23869;DHT22;12115;47.128;15.422;2024-02-14T14:28:39;12.40;58.80
23869;DHT22;12115;47.128;15.422;2024-02-14T14:31:05;12.40;59.00
23869;DHT22;12115;47.128;15.422;2024-02-14T14:33:32;12.40;58.70
23869;DHT22;12115;47.128;15.422;2024-02-14T14:35:59;12.30;58.90
23869;DHT22;12115;47.128;15.422;2024-02-14T14:38:25;12.40;58.70
23869;DHT22;12115;47.128;15.422;2024-02-14T14:40:52;12.30;58.70
23869;DHT22;12115;47.128;15.422;2024-02-14T14:43:21;12.40;58.90
23869;DHT22;12115;47.128;15.422;2024-02-14T14:45:47;12.40;58.40
23869;DHT22;12115;47.128;15.422;2024-02-14T14:48:16;12.40;58.00
23869;DHT22;12115;47.128;15.422;2024-02-14T14:50:43;12.40;58.20
23869;DHT22;12115;47.128;15.422;2024-02-14T14:53:09;12.40;58.30
23869;DHT22;12115;47.128;15.422;2024-02-14T14:58:17;12.40;59.00
23869;DHT22;12115;47.128;15.422;2024-02-14T15:00:44;12.30;59.50
23869;DHT22;12115;47.128;15.422;2024-02-14T15:03:10;12.30;61.40
23869;DHT22;12115;47.128;15.422;2024-02-14T15:05:39;12.30;62.30
23869;DHT22;12115;47.128;15.422;2024-02-14T15:08:07;12.30;63.00
23869;DHT22;12115;47.128;15.422;2024-02-14T15:10:33;12.30;64.40
23869;DHT22;12115;47.128;15.422;2024-02-14T15:13:00;12.30;65.30
23869;DHT22;12115;47.128;15.422;2024-02-14T15:15:26;12.20;66.10
23869;DHT22;12115;47.128;15.422;2024-02-14T15:17:52;12.20;66.50
23869;DHT22;12115;47.128;15.422;2024-02-14T15:20:18;12.10;66.90
23869;DHT22;12115;47.128;15.422;2024-02-14T15:22:45;12.10;66.20
23869;DHT22;12115;47.128;15.422;2024-02-14T15:25:11;12.10;66.20
23869;DHT22;12115;47.128;15.422;2024-02-14T15:27:37;12.00;68.90